Time;durP1;ratioP1;P1;durP2;ratioP2;P2;SDS_P1;SDS_P2;PMS_P1;PMS_P2;Temp;Humidity;BMP_temperature;BMP_pressure;BME280_temperature;BME280_humidity;BME280_pressure;Samples;Min_cycle;Max_cycle;Signal;HPM_P1;HPM_P2
2023/08/26 00:01:48;;;;;;;23.50;21.50;;;23.30;90.60;;;26.00;57.60;100608.50;5034032;28;20548;-70
2023/08/26 00:04:15;;;;;;;23.60;21.50;;;23.30;90.70;;;26.01;57.66;100603.91;5033341;28;20221;-70
2023/08/26 00:06:42;;;;;;;25.20;22.90;;;23.30;90.70;;;26.02;57.17;100608.22;5032955;28;20797;-70
2023/08/26 00:09:09;;;;;;;25.03;22.73;;;23.20;90.70;;;26.00;57.37;100613.09;5033453;28;20286;-70
2023/08/26 00:11:36;;;;;;;23.63;21.47;;;23.20;90.60;;;25.97;57.80;100616.34;5033580;28;20197;-70
2023/08/26 00:14:04;;;;;;;25.67;23.23;;;23.20;90.70;;;25.95;57.38;100613.13;5033772;28;20209;-70
2023/08/26 00:16:31;;;;;;;26.43;23.93;;;23.20;90.70;;;25.86;58.28;100612.09;5032894;28;20709;-71
2023/08/26 00:19:00;;;;;;;24.00;21.87;;;23.20;90.80;;;25.80;57.69;100602.41;5033682;28;20546;-69
2023/08/26 00:21:27;;;;;;;29.13;26.40;;;23.10;90.80;;;25.72;58.67;100611.09;5031767;28;20659;-68
2023/08/26 00:23:55;;;;;;;29.23;26.53;;;23.10;91.00;;;25.65;59.02;100611.38;5039230;28;20228;-69
2023/08/26 00:26:22;;;;;;;24.80;22.50;;;23.00;91.00;;;25.55;58.68;100611.44;5041805;28;20310;-69
2023/08/26 00:28:49;;;;;;;24.33;22.13;;;23.00;91.10;;;25.57;59.17;100608.47;5035444;28;20195;-69
2023/08/26 00:31:16;;;;;;;22.30;20.30;;;23.00;91.10;;;25.63;58.54;100601.94;5037179;28;20673;-69
2023/08/26 00:33:43;;;;;;;25.57;23.27;;;22.90;91.10;;;25.68;58.91;100604.63;5037082;28;20268;-69
2023/08/26 00:36:11;;;;;;;27.67;24.93;;;22.90;91.10;;;25.70;58.05;100595.19;5036902;28;20252;-69
2023/08/26 00:38:38;;;;;;;23.07;20.90;;;23.00;91.00;;;25.69;57.99;100585.50;5036623;28;20205;-69
2023/08/26 00:41:05;;;;;;;21.77;19.87;;;23.00;90.90;;;25.68;58.11;100577.66;5037311;28;20190;-69
2023/08/26 00:43:33;;;;;;;21.60;19.60;;;22.90;90.90;;;25.63;57.79;100580.38;5037169;28;20190;-69
2023/08/26 00:46:00;;;;;;;22.30;20.20;;;22.90;90.80;;;25.61;57.89;100585.25;5035149;28;20312;-69
2023/08/26 00:48:28;;;;;;;21.70;19.70;;;22.90;90.90;;;25.62;58.23;100584.19;5037062;28;20233;-69
2023/08/26 00:50:55;;;;;;;24.40;22.20;;;22.90;90.90;;;25.63;57.84;100580.38;5036962;28;20190;-69
2023/08/26 00:53:24;;;;;;;29.83;27.07;;;22.90;90.90;;;25.59;58.49;100573.94;5036881;28;20187;-69
2023/08/26 00:55:51;;;;;;;29.47;26.67;;;22.90;91.00;;;25.50;58.99;100581.81;5035665;28;20641;-70
2023/08/26 00:58:20;;;;;;;27.97;25.47;;;22.80;91.10;;;25.41;59.01;100584.22;5036810;28;20195;-70
2023/08/26 01:00:48;;;;;;;24.57;22.20;;;22.80;91.10;;;25.34;58.57;100589.09;5036957;28;20625;-70
2023/08/26 01:03:16;;;;;;;23.23;21.03;;;22.80;91.10;;;25.33;58.81;100586.69;5036845;28;20277;-69
2023/08/26 01:05:43;;;;;;;24.60;22.17;;;22.70;91.20;;;25.35;59.17;100589.91;5036137;28;20226;-70
2023/08/26 01:08:11;;;;;;;23.07;20.87;;;22.70;91.20;;;25.38;58.57;100595.59;5036939;28;20269;-70
2023/08/26 01:10:57;;;;;;;26.30;23.80;;;22.70;91.30;;;25.39;58.97;100596.38;5036449;28;20320;-69
2023/08/26 01:13:32;;;;;;;24.43;21.87;;;22.70;91.30;;;25.40;58.98;100593.41;5036741;28;20183;-70
2023/08/26 01:16:02;;;;;;;25.03;22.43;;;22.70;91.20;;;25.35;58.80;100593.44;5036492;28;20256;-70
2023/08/26 01:18:30;;;;;;;22.93;20.53;;;22.70;91.20;;;25.29;58.47;100589.13;5036589;28;20655;-69
2023/08/26 01:20:58;;;;;;;25.30;22.60;;;22.60;91.00;;;25.22;58.51;100580.53;5036575;28;20685;-70
2023/08/26 01:23:39;;;;;;;24.47;21.67;;;22.60;91.00;;;25.15;59.05;100584.63;5038371;28;20225;-69
2023/08/26 01:26:07;;;;;;;25.07;20.93;;;22.60;91.10;;;25.15;58.64;100590.78;5047159;28;20237;-69
2023/08/26 01:28:34;;;;;;;22.80;19.83;;;22.60;91.10;;;25.17;58.42;100594.03;5035037;28;20308;-69
2023/08/26 01:31:08;;;;;;;22.47;20.07;;;22.50;91.00;;;25.15;58.18;100596.19;5036333;28;20201;-69
2023/08/26 01:33:46;;;;;;;20.03;17.67;;;22.50;91.00;;;25.14;58.44;100591.88;5036056;28;20177;-69
2023/08/26 01:36:19;;;;;;;19.97;17.87;;;22.50;91.00;;;25.16;58.30;100584.34;5035606;28;20645;-69
2023/08/26 01:38:48;;;;;;;22.70;18.60;;;22.50;91.00;;;25.10;58.87;100582.75;5035412;28;20230;-69
2023/08/26 01:41:19;;;;;;;20.33;18.33;;;22.40;90.90;;;25.03;58.51;100582.19;5035456;28;20194;-69
2023/08/26 01:43:48;;;;;;;16.60;14.90;;;22.40;91.00;;;24.99;58.98;100575.75;5035611;28;20194;-69
2023/08/26 01:46:16;;;;;;;17.23;15.50;;;22.40;90.90;;;24.98;58.42;100581.44;5035125;28;20226;-70
2023/08/26 01:48:43;;;;;;;17.90;16.13;;;22.40;91.00;;;24.98;58.42;100578.72;5034729;28;20195;-69
2023/08/26 01:51:12;;;;;;;16.00;14.30;;;22.40;91.10;;;24.98;58.40;100590.31;5035931;28;20285;-69
2023/08/26 01:53:39;;;;;;;18.30;16.57;;;22.30;91.10;;;24.94;59.34;100589.22;5034700;28;20663;-69
2023/08/26 01:56:10;;;;;;;17.30;15.60;;;22.30;91.30;;;24.94;58.78;100589.22;5034322;28;20295;-69
2023/08/26 01:58:37;;;;;;;16.30;12.50;;;22.30;91.30;;;24.96;58.80;100589.75;5036035;28;20609;-69
2023/08/26 02:01:06;;;;;;;16.47;14.87;;;22.30;91.20;;;25.00;59.41;100593.53;5035568;28;20226;-70
2023/08/26 02:03:33;;;;;;;15.83;14.23;;;22.30;91.30;;;25.02;59.29;100602.16;5035997;28;20190;-69
2023/08/26 02:06:00;;;;;;;18.77;16.83;;;22.30;91.30;;;25.02;59.00;100594.06;5035256;28;20683;-69
2023/08/26 02:08:27;;;;;;;16.50;14.90;;;22.30;91.20;;;25.00;58.42;100598.13;5035635;28;20269;-69
2023/08/26 02:10:55;;;;;;;17.27;15.57;;;22.30;91.20;;;24.97;58.81;100594.06;5035372;28;20204;-69
2023/08/26 02:13:25;;;;;;;18.70;15.57;;;22.30;91.20;;;24.94;59.10;100596.53;5035286;28;20225;-69
2023/08/26 02:15:52;;;;;;;13.63;12.33;;;22.30;91.20;;;24.92;59.28;100590.59;5034797;28;20206;-69
2023/08/26 02:18:19;;;;;;;17.87;16.17;;;22.20;91.30;;;24.94;58.79;100600.00;5035657;28;20233;-69
2023/08/26 02:20:48;;;;;;;17.07;15.37;;;22.20;91.40;;;24.91;59.13;100600.56;5035330;28;20273;-69
2023/08/26 02:23:15;;;;;;;17.67;15.93;;;22.30;91.50;;;24.93;59.24;100598.41;5036122;28;20380;-69
2023/08/26 02:25:43;;;;;;;14.00;12.67;;;22.20;91.40;;;24.95;59.46;100596.25;5049806;28;20214;-69
2023/08/26 02:28:10;;;;;;;17.53;15.77;;;22.20;91.40;;;24.98;59.30;100606.47;5035117;28;20274;-69
2023/08/26 02:30:38;;;;;;;17.43;15.43;;;22.20;91.40;;;25.01;58.83;100616.69;5035114;28;20676;-69
2023/08/26 02:33:08;;;;;;;18.93;17.03;;;22.20;91.50;;;25.01;58.82;100605.91;5038081;28;20193;-69
2023/08/26 02:35:36;;;;;;;17.93;16.03;;;22.20;91.50;;;25.01;59.33;100611.31;5054867;28;20221;-69
2023/08/26 02:38:03;;;;;;;15.37;13.90;;;22.30;91.50;;;25.00;59.29;100603.50;5055771;28;20229;-70
2023/08/26 02:40:30;;;;;;;20.87;18.97;;;22.20;91.50;;;24.92;59.41;100604.84;5056309;28;20193;-69
2023/08/26 02:42:57;;;;;;;17.87;16.17;;;22.20;91.70;;;24.88;59.17;100607.31;5055673;28;20661;-69
2023/08/26 02:45:24;;;;;;;17.97;16.27;;;22.20;91.60;;;24.86;59.38;100597.88;5041726;28;20309;-69
2023/08/26 02:47:53;;;;;;;18.23;16.53;;;22.20;91.60;;;24.86;58.90;100600.56;5033833;28;20201;-69
2023/08/26 02:50:20;;;;;;;18.83;17.07;;;22.20;91.60;;;24.85;59.64;100596.25;5034567;28;20202;-69
2023/08/26 02:52:47;;;;;;;18.00;16.40;;;22.10;91.60;;;24.84;59.60;100597.34;5034860;28;20197;-69
2023/08/26 02:55:14;;;;;;;18.97;17.20;;;22.10;91.60;;;24.81;59.39;100600.56;5034464;28;20230;-69
2023/08/26 02:57:42;;;;;;;19.60;17.60;;;22.10;91.60;;;24.79;59.15;100602.75;5034828;28;20663;-69
2023/08/26 03:00:11;;;;;;;20.53;18.40;;;22.10;91.70;;;24.78;59.83;100606.50;5034817;28;20194;-70
2023/08/26 03:02:38;;;;;;;21.20;19.00;;;22.00;91.70;;;24.76;59.11;100597.84;5034337;28;20244;-69
2023/08/26 03:05:08;;;;;;;26.00;23.23;;;22.00;91.70;;;24.76;59.71;100605.94;5034246;28;20226;-69
2023/08/26 03:07:35;;;;;;;25.47;22.87;;;22.00;91.80;;;24.76;59.87;100614.00;5033295;28;20224;-69
2023/08/26 03:10:02;;;;;;;26.03;23.30;;;22.00;91.80;;;24.78;59.19;100610.00;5034618;28;20189;-69
2023/08/26 03:12:29;;;;;;;25.13;22.27;;;22.00;91.80;;;24.77;59.08;100602.22;5034693;28;20194;-68
2023/08/26 03:14:56;;;;;;;28.17;25.17;;;22.00;91.90;;;24.76;59.17;100605.94;5033087;28;20313;-69
2023/08/26 03:17:23;;;;;;;25.77;23.07;;;22.00;91.80;;;24.75;59.29;100599.72;5034976;28;20212;-69
2023/08/26 03:19:50;;;;;;;28.07;24.47;;;22.00;91.80;;;24.73;59.17;100601.91;5035294;28;20221;-69
2023/08/26 03:22:19;;;;;;;29.17;26.07;;;22.00;91.90;;;24.74;59.22;100605.41;5033237;28;20199;-69
2023/08/26 03:24:46;;;;;;;28.37;25.33;;;22.00;91.90;;;24.74;59.20;100610.78;5047400;28;20194;-69
2023/08/26 03:27:13;;;;;;;27.93;24.97;;;22.00;91.90;;;24.75;59.22;100615.06;5036622;28;20191;-71
2023/08/26 03:29:40;;;;;;;23.87;21.23;;;21.90;91.80;;;24.78;59.19;100606.50;5033824;28;20571;-68
2023/08/26 03:32:07;;;;;;;24.93;21.07;;;22.00;91.90;;;24.78;59.76;100601.94;5033960;28;20226;-69
2023/08/26 03:34:34;;;;;;;23.63;21.23;;;22.00;91.80;;;24.80;59.18;100604.34;5033602;28;20623;-68
2023/08/26 03:37:01;;;;;;;25.20;22.57;;;22.00;91.80;;;24.78;59.60;100596.53;5033371;28;20198;-68
2023/08/26 03:39:30;;;;;;;24.70;22.30;;;22.00;91.70;;;24.78;58.82;100603.81;5034018;28;20214;-69
2023/08/26 03:41:57;;;;;;;24.37;21.87;;;22.00;91.60;;;24.74;59.15;100621.56;5049188;28;20601;-70
2023/08/26 03:44:24;;;;;;;26.20;22.90;;;22.00;91.60;;;24.71;59.62;100632.88;5031828;28;20202;-69
2023/08/26 03:46:51;;;;;;;26.37;23.67;;;22.00;91.60;;;24.66;59.20;100640.94;5033212;28;20321;-69
2023/08/26 03:49:18;;;;;;;24.57;22.13;;;22.00;91.60;;;24.62;59.50;100634.50;5032851;28;20281;-68
2023/08/26 03:51:45;;;;;;;24.20;21.87;;;21.90;91.60;;;24.60;59.33;100642.03;5033878;28;20281;-68
2023/08/26 03:54:12;;;;;;;22.63;20.33;;;21.90;91.70;;;24.58;59.47;100636.91;5033856;28;20275;-70
2023/08/26 03:56:40;;;;;;;23.47;21.03;;;21.90;91.70;;;24.60;59.26;100642.84;5033423;28;20279;-69
2023/08/26 03:59:08;;;;;;;21.67;19.43;;;21.90;91.70;;;24.61;59.72;100638.25;5033718;28;20209;-69
2023/08/26 04:01:35;;;;;;;21.43;19.20;;;21.90;91.70;;;24.59;59.10;100640.41;5033356;28;20195;-69
2023/08/26 04:04:05;;;;;;;23.30;20.77;;;21.90;91.60;;;24.61;59.61;100643.63;5033241;28;20194;-68
2023/08/26 04:06:33;;;;;;;21.37;19.27;;;21.90;91.60;;;24.61;59.08;100643.63;5032862;28;20265;-68
2023/08/26 04:09:02;;;;;;;20.77;18.57;;;21.90;91.50;;;24.58;59.07;100634.22;5033823;28;20194;-68
2023/08/26 04:11:29;;;;;;;20.50;18.37;;;21.90;91.40;;;24.59;59.29;100641.22;5032299;28;20554;-69
2023/08/26 04:13:57;;;;;;;20.90;17.87;;;21.90;91.40;;;24.61;58.65;100649.00;5033907;28;20252;-69
2023/08/26 04:16:24;;;;;;;18.80;16.60;;;21.90;91.20;;;24.62;59.33;100646.06;5033550;28;20621;-69
2023/08/26 04:18:52;;;;;;;18.00;16.13;;;21.90;91.30;;;24.62;58.95;100656.03;5032331;28;20228;-69
2023/08/26 04:21:19;;;;;;;16.43;14.73;;;21.90;91.20;;;24.62;58.82;100651.47;5033485;28;20226;-69
2023/08/26 04:23:46;;;;;;;16.97;15.20;;;21.90;91.20;;;24.63;58.26;100646.84;5038544;28;20225;-69
2023/08/26 04:26:13;;;;;;;16.57;14.87;;;21.90;91.10;;;24.62;58.20;100650.63;5043118;28;20297;-69
2023/08/26 04:28:40;;;;;;;15.30;13.73;;;21.90;90.90;;;24.60;57.94;100647.41;5032285;28;20570;-69
2023/08/26 04:31:10;;;;;;;13.97;12.57;;;21.80;90.80;;;24.60;58.03;100655.50;5033306;28;20617;-69
2023/08/26 04:33:37;;;;;;;16.83;15.17;;;21.80;90.70;;;24.56;57.34;100659.78;5041065;28;20239;-69
2023/08/26 04:36:05;;;;;;;15.20;13.20;;;21.80;90.40;;;24.51;58.04;100659.81;5068134;28;20228;-69
2023/08/26 04:38:32;;;;;;;15.60;12.83;;;21.80;90.40;;;24.48;57.36;100666.53;5051841;28;20294;-69
2023/08/26 04:40:59;;;;;;;12.97;11.57;;;21.80;90.40;;;24.47;57.25;100664.09;5041104;28;20195;-69
2023/08/26 04:43:26;;;;;;;14.17;12.03;;;21.70;90.30;;;24.45;57.00;100661.66;5032992;28;20198;-69
2023/08/26 04:45:55;;;;;;;14.10;10.87;;;21.70;90.30;;;24.44;57.59;100659.25;5032465;28;20275;-69
2023/08/26 04:48:23;;;;;;;13.13;11.73;;;21.70;90.30;;;24.39;56.82;100657.34;5032585;28;20195;-69
2023/08/26 04:50:50;;;;;;;12.60;10.17;;;21.60;90.10;;;24.35;56.71;100661.66;5033041;28;20651;-69
2023/08/26 04:53:17;;;;;;;12.80;11.50;;;21.60;90.10;;;24.30;57.18;100669.72;5032886;28;20274;-69
2023/08/26 04:55:48;;;;;;;12.37;10.77;;;21.60;90.00;;;24.27;56.79;100670.22;5033104;28;20289;-69
2023/08/26 04:58:16;;;;;;;12.77;11.47;;;21.60;90.00;;;24.26;57.07;100667.81;5033207;28;20226;-69
2023/08/26 05:00:43;;;;;;;12.13;10.90;;;21.50;90.00;;;24.25;57.12;100669.69;5033406;28;20274;-69
2023/08/26 05:03:11;;;;;;;12.37;11.13;;;21.50;90.00;;;24.23;57.28;100669.97;5031685;28;20202;-69
2023/08/26 05:05:41;;;;;;;12.37;11.23;;;21.50;90.00;;;24.22;57.31;100679.09;5032310;28;20321;-69
2023/08/26 05:08:09;;;;;;;14.60;12.00;;;21.50;90.10;;;24.20;57.03;100678.56;5033082;28;20179;-69
2023/08/26 05:10:37;;;;;;;16.43;11.50;;;21.50;90.20;;;24.19;57.05;100682.34;5032979;28;20198;-69
2023/08/26 05:13:04;;;;;;;11.83;10.50;;;21.40;90.20;;;24.18;57.45;100683.41;5032467;28;20237;-69
2023/08/26 05:15:32;;;;;;;12.33;11.00;;;21.40;90.30;;;24.20;57.41;100696.59;5035296;28;20221;-69
2023/08/26 05:17:59;;;;;;;12.10;10.17;;;21.40;90.20;;;24.16;57.00;100690.94;5036273;28;20285;-69
2023/08/26 05:20:27;;;;;;;11.27;10.03;;;21.40;90.00;;;24.13;57.45;100694.16;5035160;28;20205;-69
2023/08/26 05:22:56;;;;;;;11.40;10.20;;;21.40;90.00;;;24.13;57.09;100691.47;5035439;28;20659;-68
2023/08/26 05:25:23;;;;;;;10.87;8.53;;;21.40;90.00;;;24.12;57.07;100694.44;5051113;28;20312;-69
2023/08/26 05:27:50;;;;;;;11.30;10.10;;;21.40;89.70;;;24.11;56.88;100690.94;5035998;28;20222;-70
2023/08/26 05:30:17;;;;;;;10.13;9.13;;;21.30;89.40;;;24.11;56.73;100696.31;5034981;28;20285;-69
2023/08/26 05:32:44;;;;;;;10.10;9.20;;;21.30;89.40;;;24.10;56.16;100697.38;5032300;28;20730;-69
2023/08/26 05:35:11;;;;;;;12.90;9.60;;;21.30;89.30;;;24.08;56.12;100715.66;5035424;28;20214;-69
2023/08/26 05:37:43;;;;;;;9.83;8.83;;;21.30;89.40;;;24.05;56.85;100710.78;5035643;28;20222;-69
2023/08/26 05:40:12;;;;;;;10.93;9.73;;;21.30;89.30;;;24.02;56.14;100714.00;5050894;28;20195;-68
2023/08/26 05:42:39;;;;;;;11.57;10.33;;;21.20;89.20;;;23.97;56.02;100713.97;5051554;28;20222;-70
2023/08/26 05:45:07;;;;;;;10.40;9.33;;;21.20;89.70;;;23.94;56.33;100711.81;5035400;28;20226;-69
2023/08/26 05:47:35;;;;;;;9.97;9.07;;;21.20;88.80;;;23.89;55.87;100717.16;5035734;28;20307;-69
2023/08/26 05:50:04;;;;;;;9.10;8.30;;;21.10;88.60;;;23.85;55.99;100710.69;5035653;28;20195;-69
2023/08/26 05:52:32;;;;;;;10.53;9.47;;;21.10;88.60;;;23.85;56.33;100705.31;5035491;28;20193;-69
2023/08/26 05:54:59;;;;;;;9.37;8.40;;;21.10;88.80;;;23.85;56.51;100713.38;5033931;28;20229;-69
2023/08/26 05:57:27;;;;;;;10.17;9.17;;;21.10;88.80;;;23.85;55.91;100710.69;5035707;28;20233;-69
2023/08/26 05:59:54;;;;;;;8.77;7.97;;;21.00;88.50;;;23.87;56.23;100716.63;5035037;28;20214;-69
2023/08/26 06:02:21;;;;;;;11.00;9.50;;;21.00;88.50;;;23.88;55.74;100718.25;5035249;28;20225;-69
2023/08/26 06:04:48;;;;;;;11.87;9.20;;;21.10;88.40;;;23.85;55.60;100705.31;5035093;28;21969;-69
2023/08/26 06:07:17;;;;;;;9.47;7.97;;;21.10;88.10;;;23.84;55.57;100709.09;5034299;28;20292;-70
2023/08/26 06:09:44;;;;;;;8.87;8.10;;;21.10;88.00;;;23.84;55.55;100706.41;5035492;28;20262;-71
2023/08/26 06:12:11;;;;;;;9.07;8.20;;;21.00;87.90;;;23.84;55.20;100709.09;5035216;28;20575;-70
2023/08/26 06:14:39;;;;;;;9.83;7.93;;;21.00;87.80;;;23.86;55.45;100717.72;5033570;28;20353;-71
2023/08/26 06:17:06;;;;;;;8.03;7.33;;;21.00;87.70;;;23.90;55.73;100718.78;5050518;28;20212;-69
2023/08/26 06:19:33;;;;;;;9.47;8.27;;;21.10;87.70;;;23.94;55.29;100719.88;5033818;28;20654;-69
2023/08/26 06:22:00;;;;;;;7.90;6.33;;;21.10;87.40;;;24.00;55.40;100724.22;5035097;28;20271;-69
2023/08/26 06:24:28;;;;;;;7.57;6.60;;;21.10;87.50;;;24.11;54.77;100725.09;5045632;28;20635;-69
2023/08/26 06:26:55;;;;;;;8.23;6.80;;;21.10;86.90;;;24.19;54.30;100722.72;5038868;28;20301;-69
2023/08/26 06:29:25;;;;;;;7.27;5.57;;;21.20;86.80;;;24.25;53.97;100717.34;5034586;28;20194;-69
2023/08/26 06:31:54;;;;;;;6.13;5.57;;;21.20;86.50;;;24.31;53.55;100718.97;5034773;28;20225;-69
2023/08/26 06:34:21;;;;;;;5.10;4.40;;;21.30;86.20;;;24.40;53.27;100728.94;5034445;28;20659;-69
2023/08/26 06:36:48;;;;;;;5.70;5.20;;;21.40;86.10;;;24.49;53.71;100737.28;5033686;28;20222;-69
2023/08/26 06:39:15;;;;;;;5.40;4.90;;;21.40;85.70;;;24.58;52.85;100738.41;5034531;28;20273;-69
2023/08/26 06:41:42;;;;;;;5.33;4.83;;;21.50;85.80;;;24.64;52.76;100742.72;5034331;28;20248;-69
2023/08/26 06:44:09;;;;;;;5.97;5.37;;;21.60;85.00;;;24.61;52.11;100741.38;5033999;28;20269;-69
2023/08/26 06:46:36;;;;;;;6.07;5.47;;;21.60;83.40;;;24.52;51.13;100759.13;5032139;28;20268;-69
2023/08/26 06:49:05;;;;;;;5.63;3.87;;;21.60;82.40;;;24.42;51.21;100759.09;5034065;28;20642;-69
2023/08/26 06:51:32;;;;;;;9.07;4.93;;;21.60;82.40;;;24.39;50.90;100758.81;5032846;28;20217;-69
2023/08/26 06:53:59;;;;;;;5.87;4.13;;;21.60;81.30;;;24.37;50.52;100769.84;5032510;28;20615;-68
2023/08/26 06:56:26;;;;;;;6.60;4.47;;;21.50;81.20;;;24.33;50.75;100770.63;5032404;28;20305;-69
2023/08/26 06:58:53;;;;;;;7.03;3.80;;;21.50;81.20;;;24.31;50.82;100767.41;5033018;28;20213;-70
2023/08/26 07:01:20;;;;;;;5.20;4.30;;;21.40;81.20;;;24.23;50.40;100772.22;5034018;28;20618;-70
2023/08/26 07:03:47;;;;;;;5.27;3.53;;;21.40;80.70;;;24.21;50.61;100769.00;5034250;28;20314;-69
2023/08/26 07:06:15;;;;;;;4.30;3.90;;;21.40;80.80;;;24.20;51.10;100761.97;5031987;28;20309;-70
2023/08/26 07:08:42;;;;;;;5.93;3.90;;;21.40;80.90;;;24.18;51.02;100774.88;5034277;28;20248;-70
2023/08/26 07:11:10;;;;;;;4.33;3.47;;;21.40;81.00;;;24.22;50.51;100767.91;5032943;28;20217;-70
2023/08/26 07:13:37;;;;;;;5.70;3.63;;;21.30;80.90;;;24.27;50.93;100771.69;5034021;28;20218;-70
2023/08/26 07:16:04;;;;;;;5.67;3.40;;;21.30;80.80;;;24.28;50.04;100767.91;5033294;28;20237;-69
2023/08/26 07:18:31;;;;;;;4.33;3.80;;;21.40;80.90;;;24.28;50.49;100778.69;5033824;28;20611;-69
2023/08/26 07:20:58;;;;;;;3.87;3.47;;;21.40;80.30;;;24.25;50.14;100780.00;5032732;28;20712;-70
2023/08/26 07:23:27;;;;;;;4.73;3.23;;;21.30;80.20;;;24.23;49.84;100780.28;5035786;28;20214;-70
2023/08/26 07:25:54;;;;;;;4.43;3.07;;;21.30;80.20;;;24.25;50.24;100790.00;5019852;28;20214;-69
2023/08/26 07:28:21;;;;;;;6.63;3.53;;;21.30;80.30;;;24.33;50.48;100789.47;5033082;28;20199;-69
2023/08/26 07:30:48;;;;;;;4.90;3.10;;;21.40;81.30;;;24.44;50.06;100797.31;5033449;28;20310;-70
2023/08/26 07:33:15;;;;;;;4.60;3.10;;;21.40;80.50;;;24.50;49.60;100796.28;5033810;28;20277;-70
2023/08/26 07:35:42;;;;;;;5.13;2.97;;;21.40;79.60;;;24.50;49.63;100790.06;5032127;28;20241;-70
2023/08/26 07:38:10;;;;;;;3.13;2.73;;;21.50;80.30;;;24.49;49.07;100801.91;5032435;28;20266;-70
2023/08/26 07:40:38;;;;;;;4.97;3.20;;;21.50;79.40;;;24.49;49.09;100805.41;5033688;28;20233;-71
2023/08/26 07:43:05;;;;;;;5.13;3.43;;;21.60;79.40;;;24.48;49.50;100805.69;5032071;28;20238;-70
2023/08/26 07:45:32;;;;;;;3.50;3.20;;;21.50;79.20;;;24.48;49.24;100794.91;5032407;28;20210;-69
2023/08/26 07:47:59;;;;;;;6.23;3.53;;;21.50;78.70;;;24.54;49.06;100804.59;5033015;28;20217;-70
2023/08/26 07:50:29;;;;;;;6.00;3.30;;;21.60;78.60;;;24.74;48.88;100804.69;5033714;28;20588;-69
2023/08/26 07:52:56;;;;;;;4.43;3.70;;;21.60;79.20;;;25.31;48.20;100812.56;5038897;28;20554;-69
2023/08/26 07:55:24;;;;;;;5.30;3.20;;;21.80;79.50;;;25.82;47.13;100816.03;5053048;28;20240;-71
2023/08/26 07:57:52;;;;;;;4.73;2.90;;;22.00;78.90;;;25.98;46.08;100810.31;5052025;28;20296;-69
2023/08/26 08:00:19;;;;;;;4.47;3.13;;;22.20;77.10;;;25.91;46.02;100809.03;5053100;28;20194;-70
2023/08/26 08:02:46;;;;;;;4.43;2.70;;;22.40;76.00;;;25.79;45.58;100806.63;5053515;28;20276;-69
2023/08/26 08:05:14;;;;;;;3.37;2.47;;;22.50;75.30;;;25.60;45.44;100802.88;5052306;28;20229;-70
2023/08/26 08:07:41;;;;;;;4.60;3.20;;;22.40;74.80;;;25.43;46.24;100805.03;5035792;28;20293;-69
2023/08/26 08:10:09;;;;;;;3.93;2.43;;;22.40;74.40;;;25.24;46.61;100804.75;5032883;28;20205;-70
2023/08/26 08:12:36;;;;;;;2.63;2.43;;;22.30;74.70;;;25.12;47.02;100815.00;5033315;28;20241;-69
2023/08/26 08:15:07;;;;;;;3.40;2.60;;;22.20;75.20;;;25.06;46.35;100810.66;5032685;28;20281;-70
2023/08/26 08:17:34;;;;;;;3.17;2.60;;;22.20;75.20;;;25.02;46.97;100811.47;5032961;28;20195;-70
2023/08/26 08:20:01;;;;;;;2.83;2.30;;;22.10;74.90;;;25.12;47.17;100809.59;5032395;28;20186;-70
2023/08/26 08:22:36;;;;;;;2.83;2.63;;;22.10;75.60;;;25.18;46.36;100816.59;5031731;28;20190;-70
2023/08/26 08:25:04;;;;;;;5.17;2.83;;;22.10;75.60;;;25.18;45.85;100816.59;5033510;28;20310;-70
2023/08/26 08:27:31;;;;;;;4.17;2.30;;;22.10;74.80;;;25.08;46.26;100826.59;5024603;28;20238;-70
2023/08/26 08:29:59;;;;;;;3.67;2.80;;;22.10;75.10;;;25.01;46.75;100828.72;5013130;28;20278;-69
2023/08/26 08:32:28;;;;;;;6.47;2.60;;;22.10;76.00;;;24.91;47.18;100836.78;5024262;28;20553;-69
2023/08/26 08:34:55;;;;;;;4.87;2.63;;;22.00;75.30;;;24.82;46.79;100833.78;5032189;28;20214;-69
2023/08/26 08:37:22;;;;;;;3.40;2.93;;;22.00;75.40;;;24.72;47.49;100833.75;5031326;28;20682;-70
2023/08/26 08:39:49;;;;;;;4.70;2.70;;;21.90;75.50;;;24.63;47.59;100835.31;5031435;28;20281;-69
2023/08/26 08:42:17;;;;;;;2.90;2.27;;;21.80;75.50;;;24.56;47.18;100840.16;5031587;28;20186;-69
2023/08/26 08:44:48;;;;;;;6.20;3.17;;;21.80;75.90;;;24.46;48.06;100835.53;5030802;28;20642;-69
2023/08/26 08:47:16;;;;;;;2.63;2.40;;;21.70;75.90;;;24.40;48.21;100835.78;5032263;28;20293;-70
2023/08/26 08:49:45;;;;;;;3.23;2.50;;;21.60;76.30;;;24.39;48.34;100834.97;5034023;28;20202;-70
2023/08/26 08:52:13;;;;;;;4.00;2.90;;;21.60;76.60;;;24.36;47.85;100837.38;5034833;28;20261;-70
2023/08/26 08:54:40;;;;;;;4.77;2.90;;;21.50;76.50;;;24.34;48.43;100839.53;5034982;28;20233;-69
2023/08/26 08:57:12;;;;;;;5.37;3.30;;;21.50;76.60;;;24.29;47.89;100845.72;5031567;28;20257;-69
2023/08/26 08:59:40;;;;;;;4.17;3.77;;;21.50;76.80;;;24.30;47.99;100851.88;5016664;28;20286;-70
2023/08/26 09:02:09;;;;;;;6.57;5.13;;;21.50;77.10;;;24.27;48.24;100853.22;5015275;28;20195;-70
2023/08/26 09:04:36;;;;;;;5.80;5.30;;;21.40;77.30;;;24.22;48.46;100851.31;5016433;28;20195;-70
2023/08/26 09:07:06;;;;;;;9.23;5.57;;;21.40;77.80;;;24.15;49.19;100848.03;5018638;28;22144;-70
2023/08/26 09:09:33;;;;;;;6.73;6.03;;;21.40;78.70;;;24.09;49.26;100851.78;5036312;28;20195;-70
2023/08/26 09:12:14;;;;;;;6.97;5.67;;;21.40;79.20;;;23.99;50.45;100843.63;5036683;28;20182;-71
2023/08/26 09:14:41;;;;;;;6.20;5.63;;;21.30;79.90;;;23.92;50.31;100850.28;5035065;28;20240;-70
2023/08/26 09:17:16;;;;;;;5.47;5.00;;;21.20;80.00;;;23.88;50.37;100839.25;5035857;28;20218;-73
2023/08/26 09:19:53;;;;;;;6.23;5.57;;;21.20;81.60;;;23.90;51.08;100842.50;5035669;28;20194;-70
2023/08/26 09:22:24;;;;;;;6.43;5.77;;;21.20;81.40;;;24.00;51.29;100841.75;5035731;28;20244;-70
2023/08/26 09:24:54;;;;;;;7.37;6.23;;;21.10;82.00;;;24.13;51.86;100852.88;5049817;28;20213;-70
2023/08/26 09:27:22;;;;;;;9.20;8.37;;;21.20;82.50;;;24.18;52.39;100855.59;5036674;28;20293;-70
2023/08/26 09:29:50;;;;;;;11.30;9.67;;;21.20;83.20;;;24.13;52.09;100852.88;5035596;28;20205;-70
2023/08/26 09:32:31;;;;;;;10.90;9.30;;;21.30;82.80;;;24.14;52.07;100851.81;5035622;28;20252;-70
2023/08/26 09:35:09;;;;;;;9.57;8.60;;;21.30;82.60;;;24.23;51.80;100852.13;5035074;28;20717;-69
2023/08/26 09:37:38;;;;;;;10.90;8.80;;;21.40;82.70;;;24.25;51.34;100860.75;5033528;28;20213;-68
2023/08/26 09:40:07;;;;;;;10.93;9.93;;;21.40;82.30;;;24.19;51.15;100873.38;5034479;28;20195;-69
2023/08/26 09:42:34;;;;;;;13.60;12.10;;;21.40;82.40;;;24.02;52.63;100871.88;5035182;28;20194;-69
2023/08/26 09:45:02;;;;;;;13.43;12.23;;;21.30;83.90;;;23.76;54.02;100884.34;5034389;28;20238;-70
2023/08/26 09:47:39;;;;;;;14.53;12.27;;;21.20;85.00;;;23.50;53.79;100890.59;5035336;28;20222;-70
2023/08/26 09:50:08;;;;;;;14.07;12.67;;;21.10;84.80;;;23.26;55.32;100889.25;5034816;28;20642;-69
2023/08/26 09:52:44;;;;;;;15.37;13.80;;;20.90;86.10;;;23.17;55.52;100890.78;5034430;28;20193;-69
2023/08/26 09:55:11;;;;;;;13.50;11.97;;;20.80;86.30;;;23.15;55.69;100892.91;5035247;28;20301;-69
2023/08/26 09:57:39;;;;;;;13.10;11.80;;;20.70;86.60;;;23.13;56.00;100895.06;5035071;28;20368;-69
2023/08/26 10:00:10;;;;;;;11.97;10.97;;;20.60;86.80;;;23.24;55.96;100891.41;5034162;28;20273;-69
2023/08/26 10:02:46;;;;;;;12.53;11.23;;;20.60;87.30;;;23.37;55.83;100896.38;5034549;28;20211;-71
2023/08/26 10:05:17;;;;;;;11.67;10.47;;;20.70;87.50;;;23.55;55.54;100898.69;5033457;28;20214;-71
2023/08/26 10:07:49;;;;;;;12.57;11.27;;;20.80;87.40;;;23.86;54.88;100903.25;5034699;28;20686;-69
2023/08/26 10:10:28;;;;;;;16.93;11.87;;;20.80;86.80;;;24.27;53.68;100903.56;5033267;28;20207;-68